Time,TemperatureF,DewpointF,PressureIn,WindDirection,WindDirectionDegrees,WindSpeedMPH,WindSpeedGustMPH,Humidity,HourlyPrecipIn,Conditions,Clouds,dailyrainin,SoftwareType,DateUTC
2013-08-14 00:01:00,63.8,63.2,29.65,NE,54,0.0,0.0,98,0.00,,,0.02,WUHU216DAVISVP2,2013-08-14 04:01:00,
2013-08-14 00:06:00,63.7,63.1,29.64,NE,54,0.0,0.0,98,0.00,,,0.00,WUHU216DAVISVP2,2013-08-14 04:06:00,
2013-08-14 00:11:00,63.6,63.0,29.64,NE,54,0.0,0.0,98,0.00,,,0.00,WUHU216DAVISVP2,2013-08-14 04:11:00,
2013-08-14 00:16:00,63.5,62.9,29.64,NE,54,0.0,0.0,98,0.00,,,0.00,WUHU216DAVISVP2,2013-08-14 04:16:00,
2013-08-14 00:21:00,63.3,62.7,29.64,NE,54,0.0,0.0,98,0.00,,,0.00,WUHU216DAVISVP2,2013-08-14 04:21:00,
2013-08-14 00:26:00,63.2,62.6,29.64,NE,54,0.0,0.0,98,0.00,,,0.00,WUHU216DAVISVP2,2013-08-14 04:26:00,
2013-08-14 00:31:00,63.1,62.5,29.64,NE,54,0.0,0.0,98,0.00,,,0.00,WUHU216DAVISVP2,2013-08-14 04:31:00,
2013-08-14 00:36:00,63.0,62.4,29.63,NE,54,0.0,0.0,98,0.00,,,0.00,WUHU216DAVISVP2,2013-08-14 04:36:00,
2013-08-14 00:41:00,62.9,62.3,29.63,NE,54,0.0,0.0,98,0.00,,,0.00,WUHU216DAVISVP2,2013-08-14 04:41:00,
2013-08-14 00:46:00,62.8,62.2,29.63,NE,54,0.0,0.0,98,0.00,,,0.00,WUHU216DAVISVP2,2013-08-14 04:46:00,
2013-08-14 00:51:00,62.7,62.1,29.63,NE,54,0.0,0.0,98,0.00,,,0.00,WUHU216DAVISVP2,2013-08-14 04:51:00,
2013-08-14 00:56:00,62.6,62.0,29.63,NE,54,0.0,0.0,98,0.00,,,0.00,WUHU216DAVISVP2,2013-08-14 04:56:00,
2013-08-14 01:01:00,62.5,61.9,29.63,NE,54,0.0,0.0,98,0.00,,,0.00,WUHU216DAVISVP2,2013-08-14 05:01:00,
2013-08-14 01:06:00,62.4,61.8,29.63,NE,54,0.0,0.0,98,0.00,,,0.00,WUHU216DAVISVP2,2013-08-14 05:06:00,
2013-08-14 01:11:00,62.3,61.7,29.63,NE,54,0.0,0.0,98,0.00,,,0.00,WUHU216DAVISVP2,2013-08-14 05:11:00,
2013-08-14 01:16:00,62.3,61.7,29.62,NE,54,0.0,0.0,98,0.00,,,0.00,WUHU216DAVISVP2,2013-08-14 05:16:00,
2013-08-14 01:21:00,62.3,61.7,29.63,NE,54,0.0,0.0,98,0.00,,,0.00,WUHU216DAVISVP2,2013-08-14 05:21:00,
2013-08-14 01:26:00,62.2,61.6,29.63,NE,54,0.0,0.0,98,0.00,,,0.00,WUHU216DAVISVP2,2013-08-14 05:26:00,
2013-08-14 01:31:00,62.1,61.5,29.63,NE,54,0.0,0.0,98,0.00,,,0.00,WUHU216DAVISVP2,2013-08-14 05:31:00,
2013-08-14 01:36:00,62.0,61.4,29.63,NE,54,0.0,0.0,98,0.00,,,0.00,WUHU216DAVISVP2,2013-08-14 05:36:00,
2013-08-14 01:41:00,61.9,61.3,29.63,NE,54,0.0,0.0,98,0.00,,,0.00,WUHU216DAVISVP2,2013-08-14 05:41:00,
2013-08-14 01:46:00,61.8,61.2,29.63,NE,54,0.0,0.0,98,0.00,,,0.00,WUHU216DAVISVP2,2013-08-14 05:46:00,
2013-08-14 01:51:00,61.7,61.1,29.64,NE,54,0.0,0.0,98,0.00,,,0.00,WUHU216DAVISVP2,2013-08-14 05:51:00,
2013-08-14 01:56:00,61.5,60.9,29.63,NE,54,0.0,0.0,98,0.00,,,0.00,WUHU216DAVISVP2,2013-08-14 05:56:00,
2013-08-14 02:01:00,61.4,60.8,29.63,NE,54,0.0,0.0,98,0.00,,,0.00,WUHU216DAVISVP2,2013-08-14 06:01:00,
2013-08-14 02:06:00,61.4,60.8,29.63,NE,54,0.0,0.0,98,0.00,,,0.00,WUHU216DAVISVP2,2013-08-14 06:06:00,
2013-08-14 02:11:00,61.3,60.7,29.63,NE,54,0.0,0.0,98,0.00,,,0.00,WUHU216DAVISVP2,2013-08-14 06:11:00,
2013-08-14 02:16:00,61.2,60.6,29.62,NE,54,0.0,0.0,98,0.00,,,0.00,WUHU216DAVISVP2,2013-08-14 06:16:00,
2013-08-14 02:21:00,61.2,60.6,29.62,NE,54,0.0,0.0,98,0.00,,,0.00,WUHU216DAVISVP2,2013-08-14 06:21:00,
2013-08-14 02:26:00,61.1,60.5,29.63,NE,54,0.0,0.0,98,0.00,,,0.00,WUHU216DAVISVP2,2013-08-14 06:26:00,
2013-08-14 02:31:00,61.1,60.5,29.63,NE,54,0.0,0.0,98,0.00,,,0.00,WUHU216DAVISVP2,2013-08-14 06:31:00,
2013-08-14 02:36:00,61.0,60.4,29.63,NE,54,0.0,0.0,98,0.00,,,0.00,WUHU216DAVISVP2,2013-08-14 06:36:00,
2013-08-14 02:41:00,60.9,60.3,29.63,NE,54,0.0,0.0,98,0.00,,,0.00,WUHU216DAVISVP2,2013-08-14 06:41:00,
2013-08-14 02:46:00,60.8,60.2,29.63,NE,54,0.0,0.0,98,0.00,,,0.00,WUHU216DAVISVP2,2013-08-14 06:46:00,
2013-08-14 02:51:00,60.7,60.1,29.63,NE,54,0.0,0.0,98,0.00,,,0.00,WUHU216DAVISVP2,2013-08-14 06:51:00,
2013-08-14 02:56:00,60.7,60.1,29.63,NE,54,0.0,0.0,98,0.00,,,0.00,WUHU216DAVISVP2,2013-08-14 06:56:00,
2013-08-14 03:01:00,60.6,60.0,29.63,NE,54,0.0,0.0,98,0.00,,,0.00,WUHU216DAVISVP2,2013-08-14 07:01:00,
2013-08-14 03:06:00,60.5,59.9,29.64,NE,54,0.0,0.0,98,0.00,,,0.00,WUHU216DAVISVP2,2013-08-14 07:06:00,
2013-08-14 03:11:00,60.5,60.2,29.64,NE,54,0.0,0.0,99,0.00,,,0.00,WUHU216DAVISVP2,2013-08-14 07:11:00,
2013-08-14 03:16:00,60.6,60.3,29.64,South,190,1.0,1.0,99,0.00,,,0.00,WUHU216DAVISVP2,2013-08-14 07:16:00,
2013-08-14 03:21:00,60.8,60.5,29.64,South,182,1.0,1.0,99,0.00,,,0.00,WUHU216DAVISVP2,2013-08-14 07:21:00,
2013-08-14 03:26:00,61.4,61.1,29.64,ESE,119,1.0,2.0,99,0.00,,,0.00,WUHU216DAVISVP2,2013-08-14 07:26:00,
2013-08-14 03:31:00,62.0,61.7,29.64,SW,232,1.8,4.0,99,0.00,,,0.00,WUHU216DAVISVP2,2013-08-14 07:31:00,
2013-08-14 03:36:00,62.2,61.9,29.64,WSW,246,3.0,4.0,99,0.00,,,0.00,WUHU216DAVISVP2,2013-08-14 07:36:00,
2013-08-14 03:41:00,62.4,62.1,29.64,WSW,246,0.0,4.0,99,0.00,,,0.00,WUHU216DAVISVP2,2013-08-14 07:41:00,
2013-08-14 03:46:00,62.4,62.1,29.64,West,279,1.2,4.0,99,0.00,,,0.00,WUHU216DAVISVP2,2013-08-14 07:46:00,
2013-08-14 03:51:00,62.3,62.0,29.64,WSW,248,3.0,4.0,99,0.00,,,0.00,WUHU216DAVISVP2,2013-08-14 07:51:00,
2013-08-14 03:56:00,62.1,61.5,29.64,SSW,208,1.0,5.0,98,0.00,,,0.00,WUHU216DAVISVP2,2013-08-14 07:56:00,
2013-08-14 04:01:00,62.0,61.1,29.64,WSW,251,1.2,5.0,97,0.00,,,0.00,WUHU216DAVISVP2,2013-08-14 08:01:00,
2013-08-14 04:06:00,61.9,61.0,29.64,West,263,1.0,5.0,97,0.00,,,0.00,WUHU216DAVISVP2,2013-08-14 08:06:00,
2013-08-14 04:11:00,61.9,61.0,29.64,West,263,0.0,5.0,97,0.00,,,0.00,WUHU216DAVISVP2,2013-08-14 08:11:00,
2013-08-14 04:16:00,61.8,60.6,29.64,NNE,28,1.0,4.0,96,0.00,,,0.00,WUHU216DAVISVP2,2013-08-14 08:16:00,
2013-08-14 04:21:00,61.4,59.6,29.64,SW,227,1.3,4.0,94,0.00,,,0.00,WUHU216DAVISVP2,2013-08-14 08:21:00,
2013-08-14 04:26:00,61.3,59.5,29.64,SW,234,1.0,4.0,94,0.00,,,0.00,WUHU216DAVISVP2,2013-08-14 08:26:00,
2013-08-14 04:31:00,61.2,59.1,29.65,WNW,290,0.0,4.0,93,0.00,,,0.00,WUHU216DAVISVP2,2013-08-14 08:31:00,
2013-08-14 04:36:00,60.9,58.5,29.64,West,277,1.0,4.0,92,0.00,,,0.00,WUHU216DAVISVP2,2013-08-14 08:36:00,
2013-08-14 04:41:00,60.8,58.4,29.64,NE,37,0.0,4.0,92,0.00,,,0.00,WUHU216DAVISVP2,2013-08-14 08:41:00,
2013-08-14 04:46:00,60.6,58.2,29.64,SSE,147,2.0,4.0,92,0.00,,,0.00,WUHU216DAVISVP2,2013-08-14 08:46:00,
2013-08-14 04:51:00,60.4,58.0,29.64,South,184,0.0,2.0,92,0.00,,,0.00,WUHU216DAVISVP2,2013-08-14 08:51:00,
2013-08-14 04:56:00,60.1,57.1,29.64,South,184,0.0,2.0,90,0.00,,,0.00,WUHU216DAVISVP2,2013-08-14 08:56:00,
2013-08-14 05:01:00,59.9,57.2,29.64,South,184,1.0,2.0,91,0.00,,,0.00,WUHU216DAVISVP2,2013-08-14 09:01:00,
2013-08-14 05:06:00,59.6,56.7,29.65,WSW,242,1.0,2.0,90,0.00,,,0.00,WUHU216DAVISVP2,2013-08-14 09:06:00,
2013-08-14 05:11:00,59.4,56.8,29.64,SW,216,1.0,2.0,91,0.00,,,0.00,WUHU216DAVISVP2,2013-08-14 09:11:00,
2013-08-14 05:16:00,59.2,56.6,29.65,SSW,202,0.0,2.0,91,0.00,,,0.00,WUHU216DAVISVP2,2013-08-14 09:16:00,
2013-08-14 05:21:00,59.0,56.1,29.65,WSW,241,1.0,2.0,90,0.00,,,0.00,WUHU216DAVISVP2,2013-08-14 09:21:00,
2013-08-14 05:26:00,58.8,56.2,29.65,WSW,241,0.0,2.0,91,0.00,,,0.00,WUHU216DAVISVP2,2013-08-14 09:26:00,
2013-08-14 05:31:00,58.5,55.9,29.65,WSW,241,0.0,1.0,91,0.00,,,0.00,WUHU216DAVISVP2,2013-08-14 09:31:00,
2013-08-14 05:36:00,58.2,55.9,29.65,WSW,241,0.0,1.0,92,0.00,,,0.00,WUHU216DAVISVP2,2013-08-14 09:36:00,
2013-08-14 05:41:00,57.8,55.5,29.66,WSW,241,0.0,1.0,92,0.00,,,0.00,WUHU216DAVISVP2,2013-08-14 09:41:00,
2013-08-14 05:46:00,57.5,55.5,29.66,WSW,241,0.0,0.0,93,0.00,,,0.00,WUHU216DAVISVP2,2013-08-14 09:46:00,
2013-08-14 05:51:00,57.3,55.3,29.66,WSW,241,1.0,1.0,93,0.00,,,0.00,WUHU216DAVISVP2,2013-08-14 09:51:00,
2013-08-14 05:56:00,57.3,55.3,29.67,West,267,1.0,3.0,93,0.00,,,0.00,WUHU216DAVISVP2,2013-08-14 09:56:00,
2013-08-14 06:01:00,57.3,54.7,29.67,WSW,240,0.0,4.0,91,0.00,,,0.00,WUHU216DAVISVP2,2013-08-14 10:01:00,
2013-08-14 06:06:00,57.3,54.4,29.67,SSE,164,2.0,4.0,90,0.00,,,0.00,WUHU216DAVISVP2,2013-08-14 10:06:00,
2013-08-14 06:11:00,57.3,54.4,29.67,WSW,255,1.8,4.0,90,0.00,,,0.00,WUHU216DAVISVP2,2013-08-14 10:11:00,
2013-08-14 06:16:00,57.2,54.0,29.67,WSW,251,1.0,4.0,89,0.00,,,0.00,WUHU216DAVISVP2,2013-08-14 10:16:00,
2013-08-14 06:21:00,57.2,54.0,29.67,WSW,251,1.0,3.0,89,0.00,,,0.00,WUHU216DAVISVP2,2013-08-14 10:21:00,
2013-08-14 06:26:00,57.1,53.6,29.67,SSE,150,1.0,5.0,88,0.00,,,0.00,WUHU216DAVISVP2,2013-08-14 10:26:00,
2013-08-14 06:31:00,57.1,53.6,29.68,SW,236,0.0,5.0,88,0.00,,,0.00,WUHU216DAVISVP2,2013-08-14 10:31:00,
2013-08-14 06:36:00,57.1,53.3,29.68,West,272,2.0,5.0,87,0.00,,,0.00,WUHU216DAVISVP2,2013-08-14 10:36:00,
2013-08-14 06:41:00,57.2,53.0,29.69,WSW,242,1.0,5.0,86,0.00,,,0.00,WUHU216DAVISVP2,2013-08-14 10:41:00,
2013-08-14 06:46:00,57.3,53.5,29.69,SW,232,1.0,4.0,87,0.00,,,0.00,WUHU216DAVISVP2,2013-08-14 10:46:00,
2013-08-14 06:51:00,57.2,53.0,29.69,SW,232,1.0,4.0,86,0.00,,,0.00,WUHU216DAVISVP2,2013-08-14 10:51:00,
2013-08-14 06:56:00,57.3,53.1,29.69,SSW,201,1.6,5.0,86,0.00,,,0.00,WUHU216DAVISVP2,2013-08-14 10:56:00,
2013-08-14 07:01:00,57.3,53.8,29.69,SW,231,1.0,5.0,88,0.00,,,0.00,WUHU216DAVISVP2,2013-08-14 11:01:00,
2013-08-14 07:06:00,57.2,53.7,29.69,SW,231,1.0,5.0,88,0.00,,,0.00,WUHU216DAVISVP2,2013-08-14 11:06:00,
2013-08-14 07:11:00,57.3,54.1,29.69,SW,222,1.0,5.0,89,0.00,,,0.00,WUHU216DAVISVP2,2013-08-14 11:11:00,
2013-08-14 07:16:00,57.3,53.8,29.69,West,264,1.4,3.0,88,0.00,,,0.00,WUHU216DAVISVP2,2013-08-14 11:16:00,
2013-08-14 07:21:00,57.4,54.2,29.68,SW,221,1.0,3.0,89,0.00,,,0.00,WUHU216DAVISVP2,2013-08-14 11:21:00,
2013-08-14 07:26:00,57.5,53.6,29.68,SW,217,1.0,3.0,87,0.00,,,0.00,WUHU216DAVISVP2,2013-08-14 11:26:00,
2013-08-14 07:31:00,57.7,53.5,29.69,SW,217,0.0,3.0,86,0.00,,,0.00,WUHU216DAVISVP2,2013-08-14 11:31:00,
2013-08-14 07:36:00,58.1,53.6,29.69,WSW,240,0.0,3.0,85,0.00,,,0.00,WUHU216DAVISVP2,2013-08-14 11:36:00,
2013-08-14 07:41:00,58.4,53.6,29.69,SW,234,0.0,3.0,84,0.00,,,0.00,WUHU216DAVISVP2,2013-08-14 11:41:00,
2013-08-14 07:46:00,58.8,53.7,29.69,West,278,1.8,4.0,83,0.00,,,0.00,WUHU216DAVISVP2,2013-08-14 11:46:00,
2013-08-14 07:51:00,59.0,53.9,29.69,South,177,1.0,4.0,83,0.00,,,0.00,WUHU216DAVISVP2,2013-08-14 11:51:00,
2013-08-14 07:56:00,59.1,53.3,29.69,SW,236,1.4,5.0,81,0.00,,,0.00,WUHU216DAVISVP2,2013-08-14 11:56:00,
2013-08-14 08:01:00,59.3,53.8,29.69,WNW,291,0.0,5.0,82,0.00,,,0.00,WUHU216DAVISVP2,2013-08-14 12:01:00,
2013-08-14 08:06:00,59.3,54.2,29.69,WNW,292,1.0,5.0,83,0.00,,,0.00,WUHU216DAVISVP2,2013-08-14 12:06:00,
2013-08-14 08:11:00,59.5,54.4,29.69,WNW,292,0.0,5.0,83,0.00,,,0.00,WUHU216DAVISVP2,2013-08-14 12:11:00,
2013-08-14 08:16:00,59.8,54.0,29.68,NNW,337,1.5,2.0,81,0.00,,,0.00,WUHU216DAVISVP2,2013-08-14 12:16:00,
2013-08-14 08:21:00,60.2,54.7,29.68,North,9,1.0,2.0,82,0.00,,,0.00,WUHU216DAVISVP2,2013-08-14 12:21:00,
2013-08-14 08:26:00,60.5,54.0,29.68,ESE,120,2.0,4.0,79,0.00,,,0.00,WUHU216DAVISVP2,2013-08-14 12:26:00,
2013-08-14 08:31:00,60.9,54.1,29.68,NW,304,1.4,4.0,78,0.00,,,0.00,WUHU216DAVISVP2,2013-08-14 12:31:00,
2013-08-14 08:36:00,61.2,53.7,29.68,WSW,253,2.6,9.0,76,0.00,,,0.00,WUHU216DAVISVP2,2013-08-14 12:36:00,
2013-08-14 08:41:00,61.4,54.2,29.68,North,1,1.5,9.0,77,0.00,,,0.00,WUHU216DAVISVP2,2013-08-14 12:41:00,
2013-08-14 08:46:00,61.7,53.8,29.68,SW,224,3.1,9.0,75,0.00,,,0.00,WUHU216DAVISVP2,2013-08-14 12:46:00,
2013-08-14 08:51:00,62.0,54.1,29.68,WSW,241,2.0,9.0,75,0.00,,,0.00,WUHU216DAVISVP2,2013-08-14 12:51:00,
2013-08-14 08:56:00,62.2,53.6,29.68,SSW,209,1.0,10.0,73,0.00,,,0.00,WUHU216DAVISVP2,2013-08-14 12:56:00,
2013-08-14 09:01:00,62.5,53.9,29.68,West,271,2.5,10.0,73,0.00,,,0.00,WUHU216DAVISVP2,2013-08-14 13:01:00,
2013-08-14 09:06:00,62.8,53.8,29.68,NW,307,2.6,10.0,72,0.00,,,0.00,WUHU216DAVISVP2,2013-08-14 13:06:00,
2013-08-14 09:11:00,63.0,54.3,29.68,SW,225,1.1,7.0,73,0.00,,,0.00,WUHU216DAVISVP2,2013-08-14 13:11:00,
2013-08-14 09:16:00,63.3,54.6,29.67,SW,220,2.2,5.0,73,0.00,,,0.00,WUHU216DAVISVP2,2013-08-14 13:16:00,
2013-08-14 09:21:00,63.5,54.1,29.68,SSE,164,2.7,8.0,71,0.00,,,0.00,WUHU216DAVISVP2,2013-08-14 13:21:00,
2013-08-14 09:26:00,63.5,53.3,29.67,WSW,240,3.2,8.0,69,0.00,,,0.00,WUHU216DAVISVP2,2013-08-14 13:26:00,
2013-08-14 09:31:00,63.6,52.2,29.67,SSW,213,4.8,9.0,66,0.00,,,0.00,WUHU216DAVISVP2,2013-08-14 13:31:00,
2013-08-14 09:36:00,63.8,53.2,29.67,WNW,299,1.9,9.0,68,0.00,,,0.00,WUHU216DAVISVP2,2013-08-14 13:36:00,
2013-08-14 09:41:00,64.2,54.0,29.67,West,260,1.3,8.0,69,0.00,,,0.00,WUHU216DAVISVP2,2013-08-14 13:41:00,
2013-08-14 09:46:00,64.7,54.1,29.68,ENE,60,3.0,8.0,68,0.00,,,0.00,WUHU216DAVISVP2,2013-08-14 13:46:00,
2013-08-14 09:51:00,64.7,53.2,29.68,NNE,25,2.4,7.0,66,0.00,,,0.00,WUHU216DAVISVP2,2013-08-14 13:51:00,
2013-08-14 09:56:00,64.9,53.3,29.68,NNW,328,2.7,8.0,66,0.00,,,0.00,WUHU216DAVISVP2,2013-08-14 13:56:00,
2013-08-14 10:01:00,65.1,53.9,29.68,WNW,301,2.0,8.0,67,0.00,,,0.00,WUHU216DAVISVP2,2013-08-14 14:01:00,
2013-08-14 10:06:00,65.3,52.8,29.68,SSW,209,3.1,11.0,64,0.00,,,0.00,WUHU216DAVISVP2,2013-08-14 14:06:00,
2013-08-14 10:11:00,65.4,52.9,29.68,SSW,208,2.5,11.0,64,0.00,,,0.00,WUHU216DAVISVP2,2013-08-14 14:11:00,
2013-08-14 10:16:00,65.5,52.6,29.68,SW,236,3.4,11.0,63,0.00,,,0.00,WUHU216DAVISVP2,2013-08-14 14:16:00,
2013-08-14 10:21:00,65.9,53.8,29.68,NNE,17,3.0,11.0,65,0.00,,,0.00,WUHU216DAVISVP2,2013-08-14 14:21:00,
2013-08-14 10:26:00,66.1,53.1,29.68,SW,232,3.3,9.0,63,0.00,,,0.00,WUHU216DAVISVP2,2013-08-14 14:26:00,
2013-08-14 10:31:00,66.3,53.3,29.68,SE,128,3.0,9.0,63,0.00,,,0.00,WUHU216DAVISVP2,2013-08-14 14:31:00,
2013-08-14 10:36:00,66.5,53.9,29.68,SSW,210,2.4,9.0,64,0.00,,,0.00,WUHU216DAVISVP2,2013-08-14 14:36:00,
2013-08-14 10:41:00,66.6,53.2,29.68,ENE,74,5.0,8.0,62,0.00,,,0.00,WUHU216DAVISVP2,2013-08-14 14:41:00,
2013-08-14 10:46:00,66.6,53.2,29.68,NNE,13,3.7,9.0,62,0.00,,,0.00,WUHU216DAVISVP2,2013-08-14 14:46:00,
2013-08-14 10:51:00,66.5,53.1,29.68,West,272,2.7,9.0,62,0.00,,,0.00,WUHU216DAVISVP2,2013-08-14 14:51:00,
2013-08-14 10:56:00,66.9,53.5,29.68,South,183,3.0,9.0,62,0.00,,,0.00,WUHU216DAVISVP2,2013-08-14 14:56:00,
2013-08-14 11:01:00,67.3,53.1,29.68,SW,217,4.0,9.0,60,0.00,,,0.00,WUHU216DAVISVP2,2013-08-14 15:01:00,
2013-08-14 11:06:00,67.6,53.4,29.68,South,189,3.4,9.0,60,0.00,,,0.00,WUHU216DAVISVP2,2013-08-14 15:06:00,
2013-08-14 11:11:00,67.4,52.7,29.68,East,79,3.3,9.0,59,0.00,,,0.00,WUHU216DAVISVP2,2013-08-14 15:11:00,
2013-08-14 11:16:00,66.8,53.1,29.68,NW,318,3.0,9.0,61,0.00,,,0.00,WUHU216DAVISVP2,2013-08-14 15:16:00,
2013-08-14 11:21:00,66.6,52.4,29.69,ESE,107,3.3,11.0,60,0.00,,,0.00,WUHU216DAVISVP2,2013-08-14 15:21:00,
2013-08-14 11:26:00,67.2,53.5,29.69,NNW,344,4.0,11.0,61,0.00,,,0.00,WUHU216DAVISVP2,2013-08-14 15:26:00,
2013-08-14 11:31:00,67.8,53.6,29.68,NNE,19,3.4,11.0,60,0.00,,,0.00,WUHU216DAVISVP2,2013-08-14 15:31:00,
2013-08-14 11:36:00,68.3,54.5,29.69,NW,310,2.4,11.0,61,0.00,,,0.00,WUHU216DAVISVP2,2013-08-14 15:36:00,
2013-08-14 11:41:00,68.1,52.9,29.68,SSW,202,7.0,15.0,58,0.00,,,0.00,WUHU216DAVISVP2,2013-08-14 15:41:00,
2013-08-14 11:46:00,67.7,54.4,29.69,NNE,22,2.6,15.0,62,0.00,,,0.00,WUHU216DAVISVP2,2013-08-14 15:46:00,
2013-08-14 11:51:00,67.3,52.6,29.69,NNE,26,4.0,15.0,59,0.00,,,0.00,WUHU216DAVISVP2,2013-08-14 15:51:00,
2013-08-14 11:56:00,67.6,52.4,29.69,ENE,74,7.0,15.0,58,0.00,,,0.00,WUHU216DAVISVP2,2013-08-14 15:56:00,
2013-08-14 12:01:00,67.4,52.7,29.69,NE,47,2.8,12.0,59,0.00,,,0.00,WUHU216DAVISVP2,2013-08-14 16:01:00,
2013-08-14 12:06:00,67.5,53.3,29.69,NE,43,3.5,12.0,60,0.00,,,0.00,WUHU216DAVISVP2,2013-08-14 16:06:00,
2013-08-14 12:11:00,68.2,53.0,29.69,NNE,21,3.2,9.0,58,0.00,,,0.00,WUHU216DAVISVP2,2013-08-14 16:11:00,
2013-08-14 12:16:00,67.9,54.6,29.69,NE,45,3.0,7.0,62,0.00,,,0.00,WUHU216DAVISVP2,2013-08-14 16:16:00,
2013-08-14 12:21:00,68.3,54.5,29.69,SW,234,1.8,7.0,61,0.00,,,0.00,WUHU216DAVISVP2,2013-08-14 16:21:00,
2013-08-14 12:26:00,68.8,53.6,29.69,ENE,75,2.3,8.0,58,0.00,,,0.00,WUHU216DAVISVP2,2013-08-14 16:26:00,
2013-08-14 12:31:00,69.2,53.5,29.69,ENE,70,1.6,8.0,57,0.00,,,0.00,WUHU216DAVISVP2,2013-08-14 16:31:00,
2013-08-14 12:36:00,69.4,53.7,29.69,WSW,255,1.8,8.0,57,0.00,,,0.00,WUHU216DAVISVP2,2013-08-14 16:36:00,
2013-08-14 12:41:00,69.7,53.9,29.69,East,101,2.7,8.0,57,0.00,,,0.00,WUHU216DAVISVP2,2013-08-14 16:41:00,
2013-08-14 12:46:00,69.1,52.4,29.69,ENE,77,4.3,19.0,55,0.00,,,0.00,WUHU216DAVISVP2,2013-08-14 16:46:00,
2013-08-14 12:52:00,68.7,53.5,29.69,SSW,202,2.2,19.0,58,0.00,,,0.00,WUHU216DAVISVP2,2013-08-14 16:52:00,
2013-08-14 12:57:00,69.5,52.8,29.68,West,271,2.8,19.0,55,0.00,,,0.00,WUHU216DAVISVP2,2013-08-14 16:57:00,
2013-08-14 13:03:00,70.0,53.7,29.68,SSE,155,3.0,19.0,56,0.00,,,0.00,WUHU216DAVISVP2,2013-08-14 17:03:00,
2013-08-14 13:08:00,70.2,54.4,29.68,SSW,210,2.6,7.0,57,0.00,,,0.00,WUHU216DAVISVP2,2013-08-14 17:08:00,
2013-08-14 13:13:00,70.3,55.5,29.69,NE,51,4.0,12.0,59,0.00,,,0.00,WUHU216DAVISVP2,2013-08-14 17:13:00,
2013-08-14 13:18:00,70.1,54.8,29.69,WSW,240,4.1,12.0,58,0.00,,,0.00,WUHU216DAVISVP2,2013-08-14 17:18:00,
2013-08-14 13:23:00,70.4,54.1,29.69,NNE,21,2.2,12.0,56,0.00,,,0.00,WUHU216DAVISVP2,2013-08-14 17:23:00,
2013-08-14 13:28:00,70.7,53.9,29.69,ESE,103,1.7,12.0,55,0.00,,,0.00,WUHU216DAVISVP2,2013-08-14 17:28:00,
2013-08-14 13:33:00,70.4,54.6,29.69,WSW,239,2.2,12.0,57,0.00,,,0.00,WUHU216DAVISVP2,2013-08-14 17:33:00,
2013-08-14 13:38:00,70.1,54.3,29.69,NW,322,2.6,10.0,57,0.00,,,0.00,WUHU216DAVISVP2,2013-08-14 17:38:00,
2013-08-14 13:43:00,70.5,54.7,29.69,South,176,2.5,10.0,57,0.00,,,0.00,WUHU216DAVISVP2,2013-08-14 17:43:00,
2013-08-14 13:48:00,71.0,54.7,29.69,WSW,251,3.8,10.0,56,0.00,,,0.00,WUHU216DAVISVP2,2013-08-14 17:48:00,
2013-08-14 13:53:00,71.0,54.2,29.69,NNE,18,3.2,12.0,55,0.00,,,0.00,WUHU216DAVISVP2,2013-08-14 17:53:00,
2013-08-14 13:58:00,71.0,54.2,29.69,WNW,302,6.0,12.0,55,0.00,,,0.00,WUHU216DAVISVP2,2013-08-14 17:58:00,
2013-08-14 14:04:00,71.3,54.4,29.69,West,277,2.0,12.0,55,0.00,,,0.00,WUHU216DAVISVP2,2013-08-14 18:04:00,
2013-08-14 14:09:00,72.0,56.1,29.69,West,261,5.0,12.0,57,0.00,,,0.00,WUHU216DAVISVP2,2013-08-14 18:09:00,
2013-08-14 14:14:00,72.0,53.5,29.69,WSW,242,3.9,12.0,52,0.00,,,0.00,WUHU216DAVISVP2,2013-08-14 18:14:00,
2013-08-14 14:19:00,72.0,54.6,29.70,NNW,348,3.2,12.0,54,0.00,,,0.00,WUHU216DAVISVP2,2013-08-14 18:19:00,
2013-08-14 14:24:00,72.0,55.1,29.70,SW,224,2.3,11.0,55,0.00,,,0.00,WUHU216DAVISVP2,2013-08-14 18:24:00,
2013-08-14 14:29:00,72.2,55.8,29.70,SE,124,2.0,11.0,56,0.00,,,0.00,WUHU216DAVISVP2,2013-08-14 18:29:00,
2013-08-14 14:34:00,71.7,55.3,29.69,NNE,22,2.4,10.0,56,0.00,,,0.00,WUHU216DAVISVP2,2013-08-14 18:34:00,
2013-08-14 14:39:00,71.8,55.4,29.69,NE,43,3.0,10.0,56,0.00,,,0.00,WUHU216DAVISVP2,2013-08-14 18:39:00,
2013-08-14 14:44:00,72.1,56.7,29.69,ENE,76,7.0,10.0,58,0.00,,,0.00,WUHU216DAVISVP2,2013-08-14 18:44:00,
2013-08-14 14:49:00,72.2,56.3,29.69,East,81,3.0,9.0,57,0.00,,,0.00,WUHU216DAVISVP2,2013-08-14 18:49:00,
2013-08-14 14:54:00,72.4,56.0,29.69,WNW,290,4.0,9.0,56,0.00,,,0.00,WUHU216DAVISVP2,2013-08-14 18:54:00,
2013-08-14 14:59:00,72.3,54.9,29.70,SSE,163,2.3,9.0,54,0.00,,,0.00,WUHU216DAVISVP2,2013-08-14 18:59:00,
2013-08-14 15:04:00,71.7,57.3,29.70,North,9,3.0,11.0,60,0.00,,,0.00,WUHU216DAVISVP2,2013-08-14 19:04:00,
2013-08-14 15:12:00,72.1,55.7,29.70,North,355,3.0,11.0,56,0.00,,,0.00,WUHU216DAVISVP2,2013-08-14 19:12:00,
2013-08-14 15:17:00,72.4,54.9,29.69,SW,218,3.4,11.0,54,0.00,,,0.00,WUHU216DAVISVP2,2013-08-14 19:17:00,
2013-08-14 15:22:00,71.8,54.9,29.70,West,267,5.0,10.0,55,0.00,,,0.00,WUHU216DAVISVP2,2013-08-14 19:22:00,
2013-08-14 15:27:00,71.1,54.2,29.70,WNW,283,3.7,16.0,55,0.00,,,0.00,WUHU216DAVISVP2,2013-08-14 19:27:00,
2013-08-14 15:32:00,70.9,54.1,29.71,WNW,301,2.4,16.0,55,0.00,,,0.00,WUHU216DAVISVP2,2013-08-14 19:32:00,
2013-08-14 15:37:00,71.2,54.3,29.71,WNW,291,2.5,16.0,55,0.00,,,0.00,WUHU216DAVISVP2,2013-08-14 19:37:00,
2013-08-14 15:42:00,70.8,54.0,29.71,NNE,33,2.6,14.0,55,0.00,,,0.00,WUHU216DAVISVP2,2013-08-14 19:42:00,
2013-08-14 15:47:00,70.4,55.1,29.71,ENE,62,3.0,10.0,58,0.00,,,0.00,WUHU216DAVISVP2,2013-08-14 19:47:00,
2013-08-14 15:52:00,70.5,55.2,29.72,North,360,4.0,12.0,58,0.00,,,0.00,WUHU216DAVISVP2,2013-08-14 19:52:00,
2013-08-14 15:57:00,70.7,54.9,29.72,North,355,8.0,12.0,57,0.00,,,0.00,WUHU216DAVISVP2,2013-08-14 19:57:00,
2013-08-14 16:03:00,70.7,53.9,29.72,NNW,344,2.8,12.0,55,0.00,,,0.00,WUHU216DAVISVP2,2013-08-14 20:03:00,
2013-08-14 16:08:00,71.4,54.5,29.72,SW,234,1.6,10.0,55,0.00,,,0.00,WUHU216DAVISVP2,2013-08-14 20:08:00,
2013-08-14 16:13:00,71.6,54.2,29.72,NE,45,3.9,10.0,54,0.00,,,0.00,WUHU216DAVISVP2,2013-08-14 20:13:00,
2013-08-14 16:18:00,71.7,54.8,29.72,West,274,2.1,10.0,55,0.00,,,0.00,WUHU216DAVISVP2,2013-08-14 20:18:00,
2013-08-14 16:23:00,71.5,55.6,29.72,NE,55,1.0,10.0,57,0.00,,,0.00,WUHU216DAVISVP2,2013-08-14 20:23:00,
2013-08-14 16:29:00,71.1,56.7,29.72,SSE,154,1.6,10.0,60,0.00,,,0.00,WUHU216DAVISVP2,2013-08-14 20:29:00,
2013-08-14 16:34:00,71.5,55.6,29.73,West,274,2.1,10.0,57,0.00,,,0.00,WUHU216DAVISVP2,2013-08-14 20:34:00,
2013-08-14 16:39:00,72.0,55.6,29.73,WNW,291,1.6,7.0,56,0.00,,,0.00,WUHU216DAVISVP2,2013-08-14 20:39:00,
2013-08-14 16:44:00,71.9,56.5,29.73,ESE,118,1.5,9.0,58,0.00,,,0.00,WUHU216DAVISVP2,2013-08-14 20:44:00,
2013-08-14 16:49:00,71.8,55.9,29.73,South,176,2.0,9.0,57,0.00,,,0.00,WUHU216DAVISVP2,2013-08-14 20:49:00,
2013-08-14 16:54:00,71.6,56.7,29.73,NE,48,1.5,9.0,59,0.00,,,0.00,WUHU216DAVISVP2,2013-08-14 20:54:00,
2013-08-14 16:59:00,71.2,56.3,29.73,West,261,1.0,9.0,59,0.00,,,0.00,WUHU216DAVISVP2,2013-08-14 20:59:00,
2013-08-14 17:04:00,70.8,56.9,29.73,ESE,104,1.3,5.0,61,0.00,,,0.00,WUHU216DAVISVP2,2013-08-14 21:04:00,
2013-08-14 17:09:00,70.4,56.0,29.74,SW,218,2.0,7.0,60,0.00,,,0.00,WUHU216DAVISVP2,2013-08-14 21:09:00,
2013-08-14 17:14:00,70.0,55.7,29.74,South,184,3.1,8.0,60,0.00,,,0.00,WUHU216DAVISVP2,2013-08-14 21:14:00,
2013-08-14 17:19:00,69.8,56.4,29.74,NNE,23,2.0,11.0,62,0.00,,,0.00,WUHU216DAVISVP2,2013-08-14 21:19:00,
2013-08-14 17:24:00,69.8,55.9,29.75,South,176,2.0,11.0,61,0.00,,,0.00,WUHU216DAVISVP2,2013-08-14 21:24:00,
2013-08-14 17:29:00,70.0,55.7,29.75,NNW,346,3.8,11.0,60,0.00,,,0.00,WUHU216DAVISVP2,2013-08-14 21:29:00,
2013-08-14 17:34:00,70.2,55.8,29.75,SSW,201,2.4,11.0,60,0.00,,,0.00,WUHU216DAVISVP2,2013-08-14 21:34:00,
2013-08-14 17:39:00,69.8,55.0,29.75,NE,40,3.5,11.0,59,0.00,,,0.00,WUHU216DAVISVP2,2013-08-14 21:39:00,
2013-08-14 17:44:00,69.4,55.1,29.75,ENE,75,2.6,12.0,60,0.00,,,0.00,WUHU216DAVISVP2,2013-08-14 21:44:00,
2013-08-14 17:49:00,69.1,54.8,29.75,ENE,70,7.0,12.0,60,0.00,,,0.00,WUHU216DAVISVP2,2013-08-14 21:49:00,
2013-08-14 17:54:00,68.9,54.6,29.76,North,355,5.0,12.0,60,0.00,,,0.00,WUHU216DAVISVP2,2013-08-14 21:54:00,
2013-08-14 17:55:00,68.9,54.1,29.76,NNE,28,3.5,12.0,59,0.00,,,0.00,WUHU216DAVISVP2,2013-08-14 21:55:00,
2013-08-14 18:01:00,68.7,54.4,29.76,NNW,334,2.1,9.0,60,0.00,,,0.00,WUHU216DAVISVP2,2013-08-14 22:01:00,
2013-08-14 18:06:00,68.5,54.2,29.76,NNE,18,4.2,11.0,60,0.00,,,0.00,WUHU216DAVISVP2,2013-08-14 22:06:00,
2013-08-14 18:11:00,68.3,54.0,29.77,NNE,23,3.0,11.0,60,0.00,,,0.00,WUHU216DAVISVP2,2013-08-14 22:11:00,
2013-08-14 18:16:00,68.1,54.3,29.77,North,0,2.0,11.0,61,0.00,,,0.00,WUHU216DAVISVP2,2013-08-14 22:16:00,
2013-08-14 18:21:00,67.9,54.1,29.77,NNE,20,3.4,15.0,61,0.00,,,0.00,WUHU216DAVISVP2,2013-08-14 22:21:00,
2013-08-14 18:26:00,67.6,54.3,29.77,NE,51,1.8,15.0,62,0.00,,,0.00,WUHU216DAVISVP2,2013-08-14 22:26:00,
2013-08-14 18:31:00,67.4,54.5,29.77,ESE,105,1.8,14.0,63,0.00,,,0.00,WUHU216DAVISVP2,2013-08-14 22:31:00,
2013-08-14 18:36:00,67.1,53.8,29.77,ENE,57,3.0,14.0,62,0.00,,,0.00,WUHU216DAVISVP2,2013-08-14 22:36:00,
2013-08-14 18:41:00,67.0,54.2,29.78,NE,48,1.0,10.0,63,0.00,,,0.00,WUHU216DAVISVP2,2013-08-14 22:41:00,
2013-08-14 18:46:00,66.8,54.4,29.78,NE,34,1.7,9.0,64,0.00,,,0.00,WUHU216DAVISVP2,2013-08-14 22:46:00,
2013-08-14 18:51:00,66.6,55.1,29.78,SE,141,1.3,9.0,66,0.00,,,0.00,WUHU216DAVISVP2,2013-08-14 22:51:00,
2013-08-14 18:56:00,66.4,54.0,29.79,NNE,13,2.2,10.0,64,0.00,,,0.00,WUHU216DAVISVP2,2013-08-14 22:56:00,
2013-08-14 19:01:00,66.3,53.9,29.79,NNE,30,2.0,10.0,64,0.00,,,0.00,WUHU216DAVISVP2,2013-08-14 23:01:00,
2013-08-14 19:06:00,66.3,53.5,29.79,NE,44,2.1,10.0,63,0.00,,,0.00,WUHU216DAVISVP2,2013-08-14 23:06:00,
2013-08-14 19:11:00,66.1,54.2,29.80,NNE,12,1.4,7.0,65,0.00,,,0.00,WUHU216DAVISVP2,2013-08-14 23:11:00,
2013-08-14 19:16:00,65.7,53.8,29.80,NE,53,2.0,6.0,65,0.00,,,0.00,WUHU216DAVISVP2,2013-08-14 23:16:00,
2013-08-14 19:21:00,65.7,53.8,29.80,East,93,2.7,8.0,65,0.00,,,0.00,WUHU216DAVISVP2,2013-08-14 23:21:00,
2013-08-14 19:26:00,65.6,53.7,29.80,NNE,19,3.0,8.0,65,0.00,,,0.00,WUHU216DAVISVP2,2013-08-14 23:26:00,
2013-08-14 19:31:00,65.4,53.5,29.81,NNE,22,2.5,10.0,65,0.00,,,0.00,WUHU216DAVISVP2,2013-08-14 23:31:00,
2013-08-14 19:36:00,65.2,53.3,29.81,NE,50,2.1,10.0,65,0.00,,,0.00,WUHU216DAVISVP2,2013-08-14 23:36:00,
2013-08-14 19:41:00,65.0,53.9,29.81,NE,41,1.8,10.0,67,0.00,,,0.00,WUHU216DAVISVP2,2013-08-14 23:41:00,
2013-08-14 19:46:00,64.8,53.7,29.82,NE,53,0.0,10.0,67,0.00,,,0.00,WUHU216DAVISVP2,2013-08-14 23:46:00,
2013-08-14 19:51:00,64.5,53.9,29.82,East,85,0.0,7.0,68,0.00,,,0.00,WUHU216DAVISVP2,2013-08-14 23:51:00,
2013-08-14 19:56:00,64.0,53.4,29.82,WNW,300,1.2,5.0,68,0.00,,,0.00,WUHU216DAVISVP2,2013-08-14 23:56:00,
2013-08-14 20:01:00,63.7,53.5,29.82,NE,37,2.1,8.0,69,0.00,,,0.00,WUHU216DAVISVP2,2013-08-15 00:01:00,
2013-08-14 20:06:00,63.6,53.4,29.82,NNE,29,1.8,8.0,69,0.00,,,0.00,WUHU216DAVISVP2,2013-08-15 00:06:00,
2013-08-14 20:11:00,63.6,53.4,29.82,NNE,13,1.9,8.0,69,0.00,,,0.00,WUHU216DAVISVP2,2013-08-15 00:11:00,
2013-08-14 20:16:00,63.4,53.2,29.83,NNE,12,1.0,8.0,69,0.00,,,0.00,WUHU216DAVISVP2,2013-08-15 00:16:00,
2013-08-14 20:21:00,63.2,54.2,29.83,NNE,12,0.0,6.0,72,0.00,,,0.00,WUHU216DAVISVP2,2013-08-15 00:21:00,
2013-08-14 20:26:00,62.9,53.9,29.84,NNE,18,0.0,4.0,72,0.00,,,0.00,WUHU216DAVISVP2,2013-08-15 00:26:00,
2013-08-14 20:31:00,62.6,53.6,29.84,NNE,18,0.0,1.0,72,0.00,,,0.00,WUHU216DAVISVP2,2013-08-15 00:31:00,
2013-08-14 20:36:00,62.2,53.9,29.84,NNE,18,0.0,1.0,74,0.00,,,0.00,WUHU216DAVISVP2,2013-08-15 00:36:00,
2013-08-14 20:41:00,61.7,53.4,29.85,NNE,18,0.0,1.0,74,0.00,,,0.00,WUHU216DAVISVP2,2013-08-15 00:41:00,
2013-08-14 20:46:00,61.1,53.9,29.85,NNE,18,0.0,0.0,77,0.00,,,0.00,WUHU216DAVISVP2,2013-08-15 00:46:00,
2013-08-14 20:51:00,60.2,53.4,29.85,NNE,18,0.0,1.0,78,0.00,,,0.00,WUHU216DAVISVP2,2013-08-15 00:51:00,
2013-08-14 20:56:00,59.5,53.4,29.86,NNE,18,0.0,1.0,80,0.00,,,0.00,WUHU216DAVISVP2,2013-08-15 00:56:00,
2013-08-14 21:01:00,59.0,53.2,29.86,NNE,17,1.0,1.0,81,0.00,,,0.00,WUHU216DAVISVP2,2013-08-15 01:01:00,
2013-08-14 21:06:00,59.0,53.9,29.86,NE,55,0.0,2.0,83,0.00,,,0.00,WUHU216DAVISVP2,2013-08-15 01:06:00,
2013-08-14 21:11:00,58.9,53.8,29.87,NE,55,0.0,2.0,83,0.00,,,0.00,WUHU216DAVISVP2,2013-08-15 01:11:00,
2013-08-14 21:16:00,58.9,53.4,29.87,NE,55,0.0,2.0,82,0.00,,,0.00,WUHU216DAVISVP2,2013-08-15 01:16:00,
2013-08-14 21:21:00,58.8,53.7,29.87,NE,55,1.0,2.0,83,0.00,,,0.00,WUHU216DAVISVP2,2013-08-15 01:21:00,
2013-08-14 21:26:00,58.7,53.3,29.87,NE,55,0.0,1.0,82,0.00,,,0.00,WUHU216DAVISVP2,2013-08-15 01:26:00,
2013-08-14 21:31:00,58.7,53.6,29.88,NE,55,0.0,1.0,83,0.00,,,0.00,WUHU216DAVISVP2,2013-08-15 01:31:00,
2013-08-14 21:36:00,58.6,53.2,29.88,SSE,158,1.0,1.0,82,0.00,,,0.00,WUHU216DAVISVP2,2013-08-15 01:36:00,
2013-08-14 21:41:00,58.8,53.4,29.88,SSW,198,1.0,5.0,82,0.00,,,0.00,WUHU216DAVISVP2,2013-08-15 01:41:00,
2013-08-14 21:46:00,58.7,53.6,29.88,SSW,198,1.0,5.0,83,0.00,,,0.00,WUHU216DAVISVP2,2013-08-15 01:46:00,
2013-08-14 21:51:00,58.4,53.6,29.88,SSW,198,0.0,5.0,84,0.00,,,0.00,WUHU216DAVISVP2,2013-08-15 01:51:00,
2013-08-14 21:56:00,58.0,52.9,29.89,SSW,199,1.0,5.0,83,0.00,,,0.00,WUHU216DAVISVP2,2013-08-15 01:56:00,
2013-08-14 22:01:00,57.8,53.3,29.89,SSW,203,1.2,2.0,85,0.00,,,0.00,WUHU216DAVISVP2,2013-08-15 02:01:00,
2013-08-14 22:06:00,57.9,52.5,29.89,SSW,206,1.3,2.0,82,0.00,,,0.00,WUHU216DAVISVP2,2013-08-15 02:06:00,
2013-08-14 22:11:00,58.1,53.0,29.89,SSW,206,0.0,2.0,83,0.00,,,0.00,WUHU216DAVISVP2,2013-08-15 02:11:00,
2013-08-14 22:16:00,58.0,52.9,29.89,SW,221,1.0,2.0,83,0.00,,,0.00,WUHU216DAVISVP2,2013-08-15 02:16:00,
2013-08-14 22:17:00,57.9,52.8,29.89,SW,221,1.0,2.0,83,0.00,,,0.00,WUHU216DAVISVP2,2013-08-15 02:17:00,
2013-08-14 22:22:00,57.5,52.7,29.89,SW,221,0.0,2.0,84,0.00,,,0.00,WUHU216DAVISVP2,2013-08-15 02:22:00,
2013-08-14 22:27:00,57.1,52.3,29.89,SW,221,0.0,2.0,84,0.00,,,0.00,WUHU216DAVISVP2,2013-08-15 02:27:00,
2013-08-14 22:32:00,56.8,52.7,29.89,SW,221,0.0,2.0,86,0.00,,,0.00,WUHU216DAVISVP2,2013-08-15 02:32:00,
2013-08-14 22:37:00,56.5,52.4,29.89,SW,221,1.0,1.0,86,0.00,,,0.00,WUHU216DAVISVP2,2013-08-15 02:37:00,
2013-08-14 22:42:00,56.2,52.4,29.90,SW,221,0.0,1.0,87,0.00,,,0.00,WUHU216DAVISVP2,2013-08-15 02:42:00,
2013-08-14 22:47:00,56.1,52.0,29.90,SW,221,0.0,1.0,86,0.00,,,0.00,WUHU216DAVISVP2,2013-08-15 02:47:00,
2013-08-14 22:52:00,56.2,52.1,29.90,SW,221,0.0,1.0,86,0.00,,,0.00,WUHU216DAVISVP2,2013-08-15 02:52:00,
2013-08-14 22:57:00,56.2,52.1,29.90,SW,221,0.0,1.0,86,0.00,,,0.00,WUHU216DAVISVP2,2013-08-15 02:57:00,
2013-08-14 23:02:00,56.1,52.0,29.90,SW,221,0.0,0.0,86,0.00,,,0.00,WUHU216DAVISVP2,2013-08-15 03:02:00,
2013-08-14 23:07:00,56.0,51.9,29.90,SW,221,0.0,0.0,86,0.00,,,0.00,WUHU216DAVISVP2,2013-08-15 03:07:00,
2013-08-14 23:12:00,55.9,52.1,29.91,SW,221,0.0,0.0,87,0.00,,,0.00,WUHU216DAVISVP2,2013-08-15 03:12:00,
2013-08-14 23:17:00,55.6,51.8,29.91,SW,221,0.0,0.0,87,0.00,,,0.00,WUHU216DAVISVP2,2013-08-15 03:17:00,
2013-08-14 23:22:00,55.4,51.6,29.91,SW,221,0.0,0.0,87,0.00,,,0.00,WUHU216DAVISVP2,2013-08-15 03:22:00,
2013-08-14 23:27:00,55.1,51.6,29.91,SW,221,0.0,0.0,88,0.00,,,0.00,WUHU216DAVISVP2,2013-08-15 03:27:00,
2013-08-14 23:32:00,54.9,51.4,29.91,SW,221,0.0,0.0,88,0.00,,,0.00,WUHU216DAVISVP2,2013-08-15 03:32:00,
2013-08-14 23:37:00,54.8,51.6,29.91,SW,221,0.0,0.0,89,0.00,,,0.00,WUHU216DAVISVP2,2013-08-15 03:37:00,
2013-08-14 23:42:00,54.6,51.4,29.92,SW,221,0.0,0.0,89,0.00,,,0.00,WUHU216DAVISVP2,2013-08-15 03:42:00,
2013-08-14 23:47:00,54.5,51.3,29.92,SW,221,0.0,0.0,89,0.00,,,0.00,WUHU216DAVISVP2,2013-08-15 03:47:00,
2013-08-14 23:52:00,54.4,51.2,29.92,SW,221,0.0,0.0,89,0.00,,,0.00,WUHU216DAVISVP2,2013-08-15 03:52:00,
2013-08-14 23:57:00,54.2,51.3,29.92,SW,221,0.0,0.0,90,0.00,,,0.00,WUHU216DAVISVP2,2013-08-15 03:57:00,